Hubertus, Wisconsin
Current Conditions -  °F | °C
As of 1:45 PM on Monday 24 Nov 2014 (Local Time) from KMWC Reporting Station
Light Snow Light Snow  
Wind Chill: 23°   Ceiling: 800
Heat Index: 34°   Visibility: 1mi
Dew Point: 30°   Wind: 17mph
Humidity: 87%   Direction: 250°WSW
Pressure: 29.25"   Gusts: 25mph
Location:  43.24°N, 88.22°W
Report Text: KMWC 241945Z AUTO 25015G22KT 1 SM -SN OVC008 01/M01 A2925
Loading
Personal Weather Stations






























Interactive Weather Map New forecast layout! Learn more

10-Day Weather Forecast

Advertisements
Track Severe Weather on mobile